sensor_id;sensor_type;location;lat;lon;timestamp;pressure;altitude;pressure_sealevel;temperature;humidity
21742;BME280;11033;47.490;11.116;2022-08-11T00:00:38;93590.75;;;15.61;69.68
21742;BME280;11033;47.490;11.116;2022-08-11T00:03:05;93598.09;;;15.59;67.10
21742;BME280;11033;47.490;11.116;2022-08-11T00:05:38;93590.53;;;15.49;69.13
21742;BME280;11033;47.490;11.116;2022-08-11T00:08:08;93582.16;;;15.59;68.99
21742;BME280;11033;47.490;11.116;2022-08-11T00:10:35;93582.75;;;15.54;70.04
21742;BME280;11033;47.490;11.116;2022-08-11T00:13:04;93594.00;;;15.49;71.11
21742;BME280;11033;47.490;11.116;2022-08-11T00:15:42;93576.47;;;15.62;67.18
21742;BME280;11033;47.490;11.116;2022-08-11T00:18:10;93586.66;;;15.58;68.90
21742;BME280;11033;47.490;11.116;2022-08-11T00:20:39;93589.09;;;15.53;69.10
21742;BME280;11033;47.490;11.116;2022-08-11T00:23:12;93589.53;;;15.63;66.78
21742;BME280;11033;47.490;11.116;2022-08-11T00:25:40;93587.03;;;15.75;66.37
21742;BME280;11033;47.490;11.116;2022-08-11T00:30:53;93584.59;;;15.60;67.10
21742;BME280;11033;47.490;11.116;2022-08-11T00:33:21;93578.69;;;15.58;67.67
21742;BME280;11033;47.490;11.116;2022-08-11T00:35:49;93586.06;;;15.43;69.56
21742;BME280;11033;47.490;11.116;2022-08-11T00:38:15;93587.13;;;15.29;71.36
21742;BME280;11033;47.490;11.116;2022-08-11T00:40:54;93585.63;;;15.46;68.19
21742;BME280;11033;47.490;11.116;2022-08-11T00:46:21;93586.69;;;15.38;70.03
21742;BME280;11033;47.490;11.116;2022-08-11T01:00:10;93578.53;;;15.27;69.13
21742;BME280;11033;47.490;11.116;2022-08-11T01:03:16;93581.84;;;15.15;68.45
21742;BME280;11033;47.490;11.116;2022-08-11T01:12:20;93584.09;;;14.99;72.76
21742;BME280;11033;47.490;11.116;2022-08-11T01:25:24;93574.50;;;14.91;69.41
21742;BME280;11033;47.490;11.116;2022-08-11T01:31:16;93577.97;;;14.85;69.88
21742;BME280;11033;47.490;11.116;2022-08-11T01:34:12;93575.50;;;14.90;72.38
21742;BME280;11033;47.490;11.116;2022-08-11T01:39:36;93564.31;;;15.01;68.83
21742;BME280;11033;47.490;11.116;2022-08-11T01:45:11;93568.38;;;14.84;70.18
21742;BME280;11033;47.490;11.116;2022-08-11T01:47:58;93563.69;;;14.73;72.67
21742;BME280;11033;47.490;11.116;2022-08-11T01:53:18;93555.34;;;14.63;72.49
21742;BME280;11033;47.490;11.116;2022-08-11T02:01:15;93552.03;;;14.34;73.17
21742;BME280;11033;47.490;11.116;2022-08-11T02:06:47;93554.53;;;14.42;72.57
21742;BME280;11033;47.490;11.116;2022-08-11T02:12:14;93549.59;;;14.39;73.34
21742;BME280;11033;47.490;11.116;2022-08-11T02:17:42;93543.91;;;14.42;72.74
21742;BME280;11033;47.490;11.116;2022-08-11T02:20:30;93544.03;;;14.21;76.32
21742;BME280;11033;47.490;11.116;2022-08-11T02:23:46;93537.34;;;14.32;72.58
21742;BME280;11033;47.490;11.116;2022-08-11T02:26:21;93544.72;;;14.49;71.37
21742;BME280;11033;47.490;11.116;2022-08-11T02:29:11;93536.56;;;14.44;74.30
21742;BME280;11033;47.490;11.116;2022-08-11T02:40:27;93530.38;;;14.11;75.86
21742;BME280;11033;47.490;11.116;2022-08-11T02:42:58;93534.47;;;14.20;74.72
21742;BME280;11033;47.490;11.116;2022-08-11T02:45:38;93522.63;;;14.03;75.60
21742;BME280;11033;47.490;11.116;2022-08-11T02:48:24;93535.28;;;14.14;73.66
21742;BME280;11033;47.490;11.116;2022-08-11T02:51:36;93537.91;;;14.07;75.71
21742;BME280;11033;47.490;11.116;2022-08-11T02:54:11;93519.34;;;14.01;75.78
21742;BME280;11033;47.490;11.116;2022-08-11T02:56:59;93539.75;;;14.07;74.75
21742;BME280;11033;47.490;11.116;2022-08-11T02:59:32;93529.16;;;14.07;73.80
21742;BME280;11033;47.490;11.116;2022-08-11T03:10:40;93524.25;;;13.97;73.49
21742;BME280;11033;47.490;11.116;2022-08-11T03:13:21;93517.75;;;14.13;72.51
21742;BME280;11033;47.490;11.116;2022-08-11T03:22:03;93518.56;;;14.07;74.05
21742;BME280;11033;47.490;11.116;2022-08-11T03:24:38;93516.50;;;13.89;76.57
21742;BME280;11033;47.490;11.116;2022-08-11T03:27:19;93516.91;;;13.99;75.49
21742;BME280;11033;47.490;11.116;2022-08-11T03:30:11;93512.44;;;14.06;73.14
21742;BME280;11033;47.490;11.116;2022-08-11T03:33:07;93517.91;;;13.91;75.11
21742;BME280;11033;47.490;11.116;2022-08-11T03:36:27;93521.81;;;14.02;73.73
21742;BME280;11033;47.490;11.116;2022-08-11T03:44:33;93523.00;;;13.86;75.54
21742;BME280;11033;47.490;11.116;2022-08-11T03:47:22;93520.53;;;13.78;75.62
21742;BME280;11033;47.490;11.116;2022-08-11T03:50:15;93523.19;;;13.78;75.72
21742;BME280;11033;47.490;11.116;2022-08-11T03:55:39;93525.44;;;13.81;75.96
21742;BME280;11033;47.490;11.116;2022-08-11T04:04:22;93525.03;;;13.84;74.22
21742;BME280;11033;47.490;11.116;2022-08-11T04:10:10;93517.50;;;13.81;75.33
21742;BME280;11033;47.490;11.116;2022-08-11T04:16:23;93518.63;;;13.59;79.13
21742;BME280;11033;47.490;11.116;2022-08-11T04:22:02;93519.63;;;13.58;79.11
21742;BME280;11033;47.490;11.116;2022-08-11T04:30:13;93521.94;;;13.68;77.78
21742;BME280;11033;47.490;11.116;2022-08-11T04:32:55;93522.09;;;13.59;77.47
21742;BME280;11033;47.490;11.116;2022-08-11T04:50:19;93526.22;;;13.75;76.19
21742;BME280;11033;47.490;11.116;2022-08-11T04:53:25;93527.59;;;13.64;78.80
21742;BME280;11033;47.490;11.116;2022-08-11T04:56:15;93527.06;;;13.89;73.79
21742;BME280;11033;47.490;11.116;2022-08-11T04:59:42;93534.81;;;13.84;76.45
21742;BME280;11033;47.490;11.116;2022-08-11T05:13:45;93531.78;;;14.00;74.24
21742;BME280;11033;47.490;11.116;2022-08-11T05:16:50;93529.94;;;14.01;75.05
21742;BME280;11033;47.490;11.116;2022-08-11T05:19:36;93530.13;;;13.92;76.19
21742;BME280;11033;47.490;11.116;2022-08-11T05:22:22;93527.72;;;14.11;75.47
21742;BME280;11033;47.490;11.116;2022-08-11T05:25:14;93527.31;;;14.14;75.50
21742;BME280;11033;47.490;11.116;2022-08-11T05:28:07;93525.28;;;14.16;75.67
21742;BME280;11033;47.490;11.116;2022-08-11T05:30:55;93526.09;;;14.23;75.92
21742;BME280;11033;47.490;11.116;2022-08-11T05:34:17;93523.91;;;14.33;74.45
21742;BME280;11033;47.490;11.116;2022-08-11T05:37:17;93525.94;;;14.31;78.33
21742;BME280;11033;47.490;11.116;2022-08-11T05:39:47;93523.47;;;14.23;79.36
21742;BME280;11033;47.490;11.116;2022-08-11T05:42:32;93518.00;;;14.31;76.47
21742;BME280;11033;47.490;11.116;2022-08-11T05:45:19;93517.78;;;14.39;78.72
21742;BME280;11033;47.490;11.116;2022-08-11T05:48:03;93522.06;;;14.40;78.55
21742;BME280;11033;47.490;11.116;2022-08-11T05:50:58;93509.66;;;14.61;75.47
21742;BME280;11033;47.490;11.116;2022-08-11T05:53:55;93516.56;;;14.68;74.64
21742;BME280;11033;47.490;11.116;2022-08-11T05:56:54;93517.19;;;14.77;74.17
21742;BME280;11033;47.490;11.116;2022-08-11T05:59:22;93514.31;;;14.72;75.46
21742;BME280;11033;47.490;11.116;2022-08-11T06:01:48;93513.69;;;14.83;75.88
21742;BME280;11033;47.490;11.116;2022-08-11T06:04:21;93512.47;;;14.92;74.16
21742;BME280;11033;47.490;11.116;2022-08-11T06:06:56;93510.41;;;14.94;74.65
21742;BME280;11033;47.490;11.116;2022-08-11T06:12:08;93507.97;;;14.99;75.33
21742;BME280;11033;47.490;11.116;2022-08-11T06:14:41;93508.56;;;15.08;74.21
21742;BME280;11033;47.490;11.116;2022-08-11T06:17:07;93505.28;;;15.19;74.66
21742;BME280;11033;47.490;11.116;2022-08-11T06:19:35;93510.19;;;15.15;76.21
21742;BME280;11033;47.490;11.116;2022-08-11T06:22:04;93508.50;;;15.34;72.37
21742;BME280;11033;47.490;11.116;2022-08-11T06:24:30;93506.22;;;15.38;74.21
21742;BME280;11033;47.490;11.116;2022-08-11T06:26:57;93494.13;;;15.48;71.59
21742;BME280;11033;47.490;11.116;2022-08-11T06:29:23;93504.94;;;15.53;72.12
21742;BME280;11033;47.490;11.116;2022-08-11T06:31:56;93494.53;;;15.52;74.54
21742;BME280;11033;47.490;11.116;2022-08-11T06:34:57;93509.00;;;15.69;72.90
21742;BME280;11033;47.490;11.116;2022-08-11T06:37:38;93505.50;;;15.75;72.39
21742;BME280;11033;47.490;11.116;2022-08-11T06:40:34;93500.75;;;15.84;72.18
21742;BME280;11033;47.490;11.116;2022-08-11T06:43:22;93501.13;;;15.88;73.49
21742;BME280;11033;47.490;11.116;2022-08-11T06:46:01;93503.06;;;16.05;72.94
21742;BME280;11033;47.490;11.116;2022-08-11T06:48:30;93500.81;;;16.09;72.86
21742;BME280;11033;47.490;11.116;2022-08-11T06:50:59;93496.84;;;16.18;72.20
21742;BME280;11033;47.490;11.116;2022-08-11T06:53:46;93497.22;;;16.28;72.35
21742;BME280;11033;47.490;11.116;2022-08-11T06:56:15;93500.09;;;16.27;74.56
21742;BME280;11033;47.490;11.116;2022-08-11T06:59:05;93501.69;;;16.34;72.50
21742;BME280;11033;47.490;11.116;2022-08-11T07:04:50;93502.31;;;16.55;70.40
21742;BME280;11033;47.490;11.116;2022-08-11T07:10:47;93507.56;;;16.68;70.86
21742;BME280;11033;47.490;11.116;2022-08-11T07:13:37;93507.72;;;16.73;70.76
21742;BME280;11033;47.490;11.116;2022-08-11T07:16:27;93505.06;;;16.73;70.15
21742;BME280;11033;47.490;11.116;2022-08-11T07:19:13;93510.69;;;16.83;70.27
21742;BME280;11033;47.490;11.116;2022-08-11T07:22:01;93508.19;;;16.88;70.25
21742;BME280;11033;47.490;11.116;2022-08-11T07:27:45;93499.66;;;17.04;68.71
21742;BME280;11033;47.490;11.116;2022-08-11T07:30:31;93503.06;;;17.11;68.63
21742;BME280;11033;47.490;11.116;2022-08-11T07:33:00;93490.72;;;17.17;68.30
21742;BME280;11033;47.490;11.116;2022-08-11T07:35:48;93491.25;;;17.26;69.83
21742;BME280;11033;47.490;11.116;2022-08-11T07:38:22;93493.03;;;17.32;68.95
21742;BME280;11033;47.490;11.116;2022-08-11T07:41:08;93488.88;;;17.36;70.26
21742;BME280;11033;47.490;11.116;2022-08-11T07:43:34;93492.88;;;17.45;68.27
21742;BME280;11033;47.490;11.116;2022-08-11T07:46:02;93493.59;;;17.52;67.45
21742;BME280;11033;47.490;11.116;2022-08-11T07:48:46;93491.47;;;17.61;67.03
21742;BME280;11033;47.490;11.116;2022-08-11T07:51:30;93493.03;;;17.68;66.50
21742;BME280;11033;47.490;11.116;2022-08-11T07:54:14;93495.41;;;17.77;67.59
21742;BME280;11033;47.490;11.116;2022-08-11T07:56:40;93484.66;;;17.83;66.99
21742;BME280;11033;47.490;11.116;2022-08-11T07:59:08;93491.53;;;17.91;66.33
21742;BME280;11033;47.490;11.116;2022-08-11T08:01:52;93496.06;;;18.02;66.33
21742;BME280;11033;47.490;11.116;2022-08-11T08:04:40;93491.47;;;18.09;66.04
21742;BME280;11033;47.490;11.116;2022-08-11T08:07:24;93485.00;;;18.17;66.14
21742;BME280;11033;47.490;11.116;2022-08-11T08:10:09;93485.63;;;18.30;65.07
21742;BME280;11033;47.490;11.116;2022-08-11T08:12:54;93485.75;;;18.35;65.04
21742;BME280;11033;47.490;11.116;2022-08-11T08:15:39;93484.84;;;18.42;65.24
21742;BME280;11033;47.490;11.116;2022-08-11T08:18:24;93483.94;;;18.48;64.88
21742;BME280;11033;47.490;11.116;2022-08-11T08:20:49;93479.41;;;18.60;64.81
21742;BME280;11033;47.490;11.116;2022-08-11T08:23:17;93480.38;;;18.65;64.33
21742;BME280;11033;47.490;11.116;2022-08-11T08:25:58;93475.50;;;18.74;64.84
21742;BME280;11033;47.490;11.116;2022-08-11T08:28:26;93481.09;;;18.84;64.25
21742;BME280;11033;47.490;11.116;2022-08-11T08:30:52;93474.25;;;18.88;63.03
21742;BME280;11033;47.490;11.116;2022-08-11T08:33:26;93471.13;;;19.03;63.06
21742;BME280;11033;47.490;11.116;2022-08-11T08:36:03;93469.16;;;18.98;63.10
21742;BME280;11033;47.490;11.116;2022-08-11T08:38:46;93467.03;;;19.24;63.40
21742;BME280;11033;47.490;11.116;2022-08-11T08:41:26;93472.47;;;19.29;62.26
21742;BME280;11033;47.490;11.116;2022-08-11T08:43:55;93465.72;;;19.38;62.88
21742;BME280;11033;47.490;11.116;2022-08-11T08:46:27;93462.69;;;19.46;62.18
21742;BME280;11033;47.490;11.116;2022-08-11T08:48:59;93462.47;;;19.59;62.09
21742;BME280;11033;47.490;11.116;2022-08-11T08:51:26;93457.56;;;19.68;61.90
21742;BME280;11033;47.490;11.116;2022-08-11T08:54:20;93455.91;;;19.79;61.79
21742;BME280;11033;47.490;11.116;2022-08-11T08:56:48;93465.50;;;19.91;62.00
21742;BME280;11033;47.490;11.116;2022-08-11T08:59:14;93448.69;;;20.08;61.89
21742;BME280;11033;47.490;11.116;2022-08-11T09:02:01;93450.84;;;20.22;61.81
21742;BME280;11033;47.490;11.116;2022-08-11T09:04:27;93449.31;;;20.26;61.70
21742;BME280;11033;47.490;11.116;2022-08-11T09:06:55;93450.28;;;20.37;61.81
21742;BME280;11033;47.490;11.116;2022-08-11T09:09:21;93448.94;;;20.51;61.74
21742;BME280;11033;47.490;11.116;2022-08-11T09:11:48;93452.03;;;20.60;60.23
21742;BME280;11033;47.490;11.116;2022-08-11T09:14:36;93453.00;;;20.71;60.53
21742;BME280;11033;47.490;11.116;2022-08-11T09:17:22;93451.44;;;20.75;59.94
21742;BME280;11033;47.490;11.116;2022-08-11T09:19:51;93449.28;;;20.88;60.05
21742;BME280;11033;47.490;11.116;2022-08-11T09:22:23;93446.81;;;21.04;59.82
21742;BME280;11033;47.490;11.116;2022-08-11T09:25:08;93447.59;;;21.21;59.31
21742;BME280;11033;47.490;11.116;2022-08-11T09:27:53;93438.03;;;21.25;59.07
21742;BME280;11033;47.490;11.116;2022-08-11T09:30:23;93438.72;;;21.37;59.92
21742;BME280;11033;47.490;11.116;2022-08-11T09:32:53;93437.81;;;21.48;58.60
21742;BME280;11033;47.490;11.116;2022-08-11T09:35:24;93440.66;;;21.64;59.63
21742;BME280;11033;47.490;11.116;2022-08-11T09:37:51;93431.19;;;21.78;59.52
21742;BME280;11033;47.490;11.116;2022-08-11T09:40:35;93438.31;;;21.94;58.64
21742;BME280;11033;47.490;11.116;2022-08-11T09:43:06;93435.53;;;22.06;57.74
21742;BME280;11033;47.490;11.116;2022-08-11T09:45:54;93436.09;;;22.35;56.87
21742;BME280;11033;47.490;11.116;2022-08-11T09:48:23;93432.44;;;22.46;56.90
21742;BME280;11033;47.490;11.116;2022-08-11T09:50:51;93429.28;;;22.54;57.02
21742;BME280;11033;47.490;11.116;2022-08-11T09:53:19;93417.28;;;22.67;55.73
21742;BME280;11033;47.490;11.116;2022-08-11T09:55:45;93423.69;;;22.88;56.60
21742;BME280;11033;47.490;11.116;2022-08-11T09:58:13;93424.28;;;23.00;56.65
21742;BME280;11033;47.490;11.116;2022-08-11T10:00:39;93418.72;;;23.12;56.12
21742;BME280;11033;47.490;11.116;2022-08-11T10:03:31;93426.06;;;23.26;55.44
21742;BME280;11033;47.490;11.116;2022-08-11T10:05:58;93422.94;;;23.45;55.85
21742;BME280;11033;47.490;11.116;2022-08-11T10:08:44;93417.13;;;23.58;56.43
21742;BME280;11033;47.490;11.116;2022-08-11T10:11:13;93424.72;;;23.76;55.50
21742;BME280;11033;47.490;11.116;2022-08-11T10:13:42;93419.63;;;23.90;55.27
21742;BME280;11033;47.490;11.116;2022-08-11T10:16:28;93424.50;;;24.03;54.00
21742;BME280;11033;47.490;11.116;2022-08-11T10:18:55;93422.63;;;23.98;54.90
21742;BME280;11033;47.490;11.116;2022-08-11T10:23:53;93425.38;;;24.19;54.58
21742;BME280;11033;47.490;11.116;2022-08-11T10:26:38;93416.81;;;24.52;55.29
21742;BME280;11033;47.490;11.116;2022-08-11T10:29:32;93409.56;;;24.68;55.20
21742;BME280;11033;47.490;11.116;2022-08-11T10:32:21;93413.06;;;24.89;55.02
21742;BME280;11033;47.490;11.116;2022-08-11T10:35:06;93414.16;;;24.78;53.84
21742;BME280;11033;47.490;11.116;2022-08-11T10:37:35;93424.66;;;24.84;53.56
21742;BME280;11033;47.490;11.116;2022-08-11T10:40:02;93415.75;;;24.89;53.23
21742;BME280;11033;47.490;11.116;2022-08-11T10:42:28;93399.59;;;24.89;51.43
21742;BME280;11033;47.490;11.116;2022-08-11T10:45:13;93407.13;;;24.97;52.25
21742;BME280;11033;47.490;11.116;2022-08-11T10:47:58;93407.13;;;25.17;52.16
21742;BME280;11033;47.490;11.116;2022-08-11T10:50:24;93403.06;;;25.25;52.36
21742;BME280;11033;47.490;11.116;2022-08-11T10:53:10;93414.34;;;25.47;52.17
21742;BME280;11033;47.490;11.116;2022-08-11T10:55:55;93395.22;;;25.39;52.33
21742;BME280;11033;47.490;11.116;2022-08-11T10:58:41;93401.38;;;25.54;50.63
21742;BME280;11033;47.490;11.116;2022-08-11T11:01:11;93408.06;;;25.72;50.95
21742;BME280;11033;47.490;11.116;2022-08-11T11:03:37;93397.13;;;26.03;51.07
21742;BME280;11033;47.490;11.116;2022-08-11T11:06:27;93392.25;;;26.00;50.20
21742;BME280;11033;47.490;11.116;2022-08-11T11:09:01;93386.69;;;26.35;51.50
21742;BME280;11033;47.490;11.116;2022-08-11T11:11:30;93384.66;;;26.12;49.93
21742;BME280;11033;47.490;11.116;2022-08-11T11:14:18;93382.94;;;26.26;49.54
21742;BME280;11033;47.490;11.116;2022-08-11T11:17:08;93388.75;;;26.48;49.10
21742;BME280;11033;47.490;11.116;2022-08-11T11:19:57;93380.59;;;26.53;48.53
21742;BME280;11033;47.490;11.116;2022-08-11T11:22:28;93377.00;;;26.24;48.87
21742;BME280;11033;47.490;11.116;2022-08-11T11:30:18;93387.00;;;27.02;48.91
21742;BME280;11033;47.490;11.116;2022-08-11T11:35:45;93393.28;;;27.50;48.04
21742;BME280;11033;47.490;11.116;2022-08-11T11:38:14;93382.38;;;27.02;48.29
21742;BME280;11033;47.490;11.116;2022-08-11T11:40:41;93391.97;;;27.19;47.56
21742;BME280;11033;47.490;11.116;2022-08-11T11:43:07;93383.03;;;27.47;46.68
21742;BME280;11033;47.490;11.116;2022-08-11T11:45:32;93377.72;;;27.85;48.83
21742;BME280;11033;47.490;11.116;2022-08-11T11:47:59;93365.22;;;28.07;46.74
21742;BME280;11033;47.490;11.116;2022-08-11T11:50:32;93363.28;;;27.89;47.15
21742;BME280;11033;47.490;11.116;2022-08-11T11:53:00;93365.78;;;27.86;46.84
21742;BME280;11033;47.490;11.116;2022-08-11T11:55:26;93365.56;;;28.25;47.18
21742;BME280;11033;47.490;11.116;2022-08-11T11:57:53;93365.84;;;28.42;47.41
21742;BME280;11033;47.490;11.116;2022-08-11T12:00:39;93361.94;;;28.67;47.34
21742;BME280;11033;47.490;11.116;2022-08-11T12:03:24;93361.50;;;28.22;45.06
21742;BME280;11033;47.490;11.116;2022-08-11T12:05:51;93362.06;;;28.57;45.80
21742;BME280;11033;47.490;11.116;2022-08-11T12:08:17;93362.53;;;28.64;45.42
21742;BME280;11033;47.490;11.116;2022-08-11T12:10:48;93357.81;;;28.88;44.98
21742;BME280;11033;47.490;11.116;2022-08-11T12:13:17;93359.81;;;28.96;46.26
21742;BME280;11033;47.490;11.116;2022-08-11T12:16:02;93357.22;;;29.05;44.14
21742;BME280;11033;47.490;11.116;2022-08-11T12:18:33;93354.31;;;29.01;44.95
21742;BME280;11033;47.490;11.116;2022-08-11T12:21:00;93348.19;;;29.10;43.36
21742;BME280;11033;47.490;11.116;2022-08-11T12:23:26;93342.59;;;29.33;43.24
21742;BME280;11033;47.490;11.116;2022-08-11T12:26:13;93347.78;;;29.16;43.40
21742;BME280;11033;47.490;11.116;2022-08-11T12:28:59;93348.28;;;29.51;42.51
21742;BME280;11033;47.490;11.116;2022-08-11T12:31:27;93343.72;;;29.74;43.78
21742;BME280;11033;47.490;11.116;2022-08-11T12:34:11;93354.50;;;29.65;41.78
21742;BME280;11033;47.490;11.116;2022-08-11T12:36:42;93346.03;;;29.94;43.44
21742;BME280;11033;47.490;11.116;2022-08-11T12:39:12;93345.72;;;30.09;41.95
21742;BME280;11033;47.490;11.116;2022-08-11T12:41:38;93348.44;;;29.82;41.67
21742;BME280;11033;47.490;11.116;2022-08-11T12:44:25;93348.34;;;30.37;42.04
21742;BME280;11033;47.490;11.116;2022-08-11T12:47:12;93343.66;;;30.28;40.91
21742;BME280;11033;47.490;11.116;2022-08-11T12:49:41;93338.66;;;30.44;41.72
21742;BME280;11033;47.490;11.116;2022-08-11T12:52:29;93350.91;;;30.69;40.47
21742;BME280;11033;47.490;11.116;2022-08-11T12:55:00;93341.72;;;30.87;40.14
21742;BME280;11033;47.490;11.116;2022-08-11T13:00:10;93330.06;;;31.18;39.27
21742;BME280;11033;47.490;11.116;2022-08-11T13:02:54;93337.63;;;31.61;38.96
21742;BME280;11033;47.490;11.116;2022-08-11T13:05:41;93330.25;;;32.09;38.15
21742;BME280;11033;47.490;11.116;2022-08-11T13:08:07;93331.28;;;32.83;38.25
21742;BME280;11033;47.490;11.116;2022-08-11T13:10:33;93331.44;;;32.77;36.27
21742;BME280;11033;47.490;11.116;2022-08-11T13:13:17;93331.50;;;34.09;36.76
21742;BME280;11033;47.490;11.116;2022-08-11T13:15:47;93328.78;;;35.13;35.85
21742;BME280;11033;47.490;11.116;2022-08-11T13:18:18;93320.53;;;35.71;34.12
21742;BME280;11033;47.490;11.116;2022-08-11T13:20:50;93328.72;;;35.01;32.18
21742;BME280;11033;47.490;11.116;2022-08-11T13:23:16;93323.44;;;35.99;34.35
21742;BME280;11033;47.490;11.116;2022-08-11T13:25:41;93322.31;;;35.87;32.35
21742;BME280;11033;47.490;11.116;2022-08-11T13:28:08;93325.91;;;36.53;33.40
21742;BME280;11033;47.490;11.116;2022-08-11T13:30:35;93328.53;;;37.45;33.11
21742;BME280;11033;47.490;11.116;2022-08-11T13:33:19;93323.53;;;37.35;31.81
21742;BME280;11033;47.490;11.116;2022-08-11T13:35:47;93318.97;;;38.02;32.58
21742;BME280;11033;47.490;11.116;2022-08-11T13:38:15;93318.34;;;37.18;29.66
21742;BME280;11033;47.490;11.116;2022-08-11T13:40:42;93313.56;;;36.46;29.86
21742;BME280;11033;47.490;11.116;2022-08-11T13:43:09;93323.97;;;37.81;29.71
21742;BME280;11033;47.490;11.116;2022-08-11T13:45:36;93327.25;;;36.99;30.29
21742;BME280;11033;47.490;11.116;2022-08-11T13:48:05;93326.06;;;37.71;28.75
21742;BME280;11033;47.490;11.116;2022-08-11T13:50:32;93321.06;;;38.08;31.14
21742;BME280;11033;47.490;11.116;2022-08-11T13:53:20;93322.25;;;37.92;29.54
21742;BME280;11033;47.490;11.116;2022-08-11T13:55:46;93312.38;;;37.59;31.38
21742;BME280;11033;47.490;11.116;2022-08-11T13:58:13;93321.63;;;35.91;31.81
21742;BME280;11033;47.490;11.116;2022-08-11T14:00:40;93315.09;;;36.07;32.79
21742;BME280;11033;47.490;11.116;2022-08-11T14:03:09;93327.53;;;36.29;31.43
21742;BME280;11033;47.490;11.116;2022-08-11T14:05:57;93318.88;;;33.58;32.84
21742;BME280;11033;47.490;11.116;2022-08-11T14:08:30;93314.16;;;33.37;32.53
21742;BME280;11033;47.490;11.116;2022-08-11T14:11:01;93319.44;;;33.43;33.80
21742;BME280;11033;47.490;11.116;2022-08-11T14:13:45;93325.88;;;33.29;33.39
21742;BME280;11033;47.490;11.116;2022-08-11T14:16:19;93323.50;;;33.66;35.03
21742;BME280;11033;47.490;11.116;2022-08-11T14:18:47;93318.94;;;32.59;34.63
21742;BME280;11033;47.490;11.116;2022-08-11T14:21:15;93319.19;;;31.58;35.12
21742;BME280;11033;47.490;11.116;2022-08-11T14:24:01;93311.38;;;32.39;35.84
21742;BME280;11033;47.490;11.116;2022-08-11T14:26:29;93319.44;;;31.08;36.83
21742;BME280;11033;47.490;11.116;2022-08-11T14:29:00;93317.56;;;31.17;36.51
21742;BME280;11033;47.490;11.116;2022-08-11T14:31:32;93321.88;;;31.40;36.96
21742;BME280;11033;47.490;11.116;2022-08-11T14:34:02;93317.19;;;31.32;35.92
21742;BME280;11033;47.490;11.116;2022-08-11T14:36:38;93318.19;;;30.47;37.59
21742;BME280;11033;47.490;11.116;2022-08-11T14:39:12;93328.50;;;30.72;37.31
21742;BME280;11033;47.490;11.116;2022-08-11T14:41:49;93322.06;;;31.52;37.32
21742;BME280;11033;47.490;11.116;2022-08-11T14:44:36;93328.66;;;32.08;35.42
21742;BME280;11033;47.490;11.116;2022-08-11T14:47:22;93323.44;;;30.79;36.97
21742;BME280;11033;47.490;11.116;2022-08-11T14:49:48;93322.91;;;31.00;36.99
21742;BME280;11033;47.490;11.116;2022-08-11T14:52:16;93328.22;;;30.38;37.59
21742;BME280;11033;47.490;11.116;2022-08-11T14:54:44;93329.81;;;31.28;36.84
21742;BME280;11033;47.490;11.116;2022-08-11T14:57:31;93330.78;;;32.98;35.05
21742;BME280;11033;47.490;11.116;2022-08-11T14:59:59;93325.22;;;33.88;34.09
21742;BME280;11033;47.490;11.116;2022-08-11T15:02:25;93324.97;;;33.63;33.44
21742;BME280;11033;47.490;11.116;2022-08-11T15:05:10;93336.88;;;32.43;34.56
21742;BME280;11033;47.490;11.116;2022-08-11T15:07:36;93328.22;;;32.75;35.52
21742;BME280;11033;47.490;11.116;2022-08-11T15:10:04;93331.75;;;32.67;34.27
21742;BME280;11033;47.490;11.116;2022-08-11T15:12:32;93328.94;;;33.36;34.08
21742;BME280;11033;47.490;11.116;2022-08-11T15:14:59;93326.94;;;33.54;34.70
21742;BME280;11033;47.490;11.116;2022-08-11T15:17:44;93320.47;;;32.08;34.39
21742;BME280;11033;47.490;11.116;2022-08-11T15:20:14;93325.75;;;31.57;35.20
21742;BME280;11033;47.490;11.116;2022-08-11T15:22:59;93318.53;;;31.52;34.90
21742;BME280;11033;47.490;11.116;2022-08-11T15:25:49;93325.63;;;31.62;35.62
21742;BME280;11033;47.490;11.116;2022-08-11T15:28:17;93318.34;;;30.86;36.95
21742;BME280;11033;47.490;11.116;2022-08-11T15:31:02;93319.72;;;32.86;35.21
21742;BME280;11033;47.490;11.116;2022-08-11T15:33:50;93317.97;;;32.55;33.29
21742;BME280;11033;47.490;11.116;2022-08-11T15:36:35;93317.66;;;32.57;33.83
21742;BME280;11033;47.490;11.116;2022-08-11T15:39:23;93316.94;;;33.03;34.13
21742;BME280;11033;47.490;11.116;2022-08-11T15:42:10;93315.50;;;33.61;33.16
21742;BME280;11033;47.490;11.116;2022-08-11T15:44:57;93314.47;;;34.33;32.72
21742;BME280;11033;47.490;11.116;2022-08-11T15:47:56;93302.28;;;33.33;34.98
21742;BME280;11033;47.490;11.116;2022-08-11T15:50:26;93316.19;;;33.79;33.88
21742;BME280;11033;47.490;11.116;2022-08-11T15:53:08;93311.34;;;32.91;35.31
21742;BME280;11033;47.490;11.116;2022-08-11T15:55:36;93317.69;;;34.56;30.62
21742;BME280;11033;47.490;11.116;2022-08-11T15:58:06;93312.00;;;34.40;33.30
21742;BME280;11033;47.490;11.116;2022-08-11T16:00:51;93309.59;;;34.39;30.44
21742;BME280;11033;47.490;11.116;2022-08-11T16:03:48;93302.59;;;33.32;33.41
21742;BME280;11033;47.490;11.116;2022-08-11T16:06:35;93308.13;;;32.97;34.04
21742;BME280;11033;47.490;11.116;2022-08-11T16:09:03;93305.28;;;32.25;35.09
21742;BME280;11033;47.490;11.116;2022-08-11T16:11:32;93306.72;;;32.31;34.25
21742;BME280;11033;47.490;11.116;2022-08-11T16:14:01;93290.69;;;31.64;34.64
21742;BME280;11033;47.490;11.116;2022-08-11T16:16:47;93292.78;;;31.67;33.83
21742;BME280;11033;47.490;11.116;2022-08-11T16:19:14;93298.66;;;31.91;34.63
21742;BME280;11033;47.490;11.116;2022-08-11T16:21:41;93295.44;;;31.89;34.18
21742;BME280;11033;47.490;11.116;2022-08-11T16:24:12;93285.78;;;31.83;34.77
21742;BME280;11033;47.490;11.116;2022-08-11T16:26:41;93291.88;;;31.32;34.99